sensor_id;sensor_type;location;lat;lon;timestamp;temperature;humidity
52731;DHT22;38624;53.242;6.974;2023-08-31T00:00:10;10.10;99.90
52731;DHT22;38624;53.242;6.974;2023-08-31T00:02:38;10.10;99.90
52731;DHT22;38624;53.242;6.974;2023-08-31T00:05:04;10.10;99.90
52731;DHT22;38624;53.242;6.974;2023-08-31T00:07:30;10.10;99.90
52731;DHT22;38624;53.242;6.974;2023-08-31T00:09:57;10.00;99.90
52731;DHT22;38624;53.242;6.974;2023-08-31T00:12:24;10.00;99.90
52731;DHT22;38624;53.242;6.974;2023-08-31T00:14:50;10.00;99.90
52731;DHT22;38624;53.242;6.974;2023-08-31T00:17:16;10.00;99.90
52731;DHT22;38624;53.242;6.974;2023-08-31T00:19:43;10.00;99.90
52731;DHT22;38624;53.242;6.974;2023-08-31T00:22:09;10.10;99.90
52731;DHT22;38624;53.242;6.974;2023-08-31T00:24:34;10.20;99.90
52731;DHT22;38624;53.242;6.974;2023-08-31T00:27:03;9.90;99.90
52731;DHT22;38624;53.242;6.974;2023-08-31T00:29:29;9.90;99.90
52731;DHT22;38624;53.242;6.974;2023-08-31T00:31:56;9.80;99.90
52731;DHT22;38624;53.242;6.974;2023-08-31T00:36:48;9.80;99.90
52731;DHT22;38624;53.242;6.974;2023-08-31T00:39:14;9.80;99.90
52731;DHT22;38624;53.242;6.974;2023-08-31T00:41:40;9.80;99.90
52731;DHT22;38624;53.242;6.974;2023-08-31T00:44:05;9.80;99.90
52731;DHT22;38624;53.242;6.974;2023-08-31T00:46:34;9.80;99.90
52731;DHT22;38624;53.242;6.974;2023-08-31T00:49:00;9.80;99.90
52731;DHT22;38624;53.242;6.974;2023-08-31T00:51:26;9.80;99.90
52731;DHT22;38624;53.242;6.974;2023-08-31T00:53:52;9.90;99.90
52731;DHT22;38624;53.242;6.974;2023-08-31T00:56:24;9.80;99.90
52731;DHT22;38624;53.242;6.974;2023-08-31T00:58:51;9.80;99.90
52731;DHT22;38624;53.242;6.974;2023-08-31T01:01:25;9.80;99.90
52731;DHT22;38624;53.242;6.974;2023-08-31T01:07:03;9.80;99.90
52731;DHT22;38624;53.242;6.974;2023-08-31T01:09:41;9.80;99.90
52731;DHT22;38624;53.242;6.974;2023-08-31T01:12:36;9.80;99.90
52731;DHT22;38624;53.242;6.974;2023-08-31T01:15:09;9.80;99.90
52731;DHT22;38624;53.242;6.974;2023-08-31T01:17:50;9.80;99.90
52731;DHT22;38624;53.242;6.974;2023-08-31T01:20:34;9.90;99.90
52731;DHT22;38624;53.242;6.974;2023-08-31T01:23:10;9.90;99.90
52731;DHT22;38624;53.242;6.974;2023-08-31T01:25:39;10.00;99.90
52731;DHT22;38624;53.242;6.974;2023-08-31T01:28:08;10.00;99.90
52731;DHT22;38624;53.242;6.974;2023-08-31T01:30:35;10.00;99.90
52731;DHT22;38624;53.242;6.974;2023-08-31T01:33:01;10.00;99.90
52731;DHT22;38624;53.242;6.974;2023-08-31T01:35:32;10.00;99.90
52731;DHT22;38624;53.242;6.974;2023-08-31T01:38:02;10.00;99.90
52731;DHT22;38624;53.242;6.974;2023-08-31T01:40:35;10.00;99.90
52731;DHT22;38624;53.242;6.974;2023-08-31T01:43:02;10.00;99.90
52731;DHT22;38624;53.242;6.974;2023-08-31T01:45:32;10.00;99.90
52731;DHT22;38624;53.242;6.974;2023-08-31T01:47:59;9.90;99.90
52731;DHT22;38624;53.242;6.974;2023-08-31T01:50:25;9.90;99.90
52731;DHT22;38624;53.242;6.974;2023-08-31T01:52:51;9.80;99.90
52731;DHT22;38624;53.242;6.974;2023-08-31T01:55:18;10.90;99.90
52731;DHT22;38624;53.242;6.974;2023-08-31T01:57:44;9.70;99.90
52731;DHT22;38624;53.242;6.974;2023-08-31T02:00:10;9.70;99.90
52731;DHT22;38624;53.242;6.974;2023-08-31T02:02:36;9.60;99.90
52731;DHT22;38624;53.242;6.974;2023-08-31T02:05:02;9.50;99.90
52731;DHT22;38624;53.242;6.974;2023-08-31T02:07:30;9.50;99.90
52731;DHT22;38624;53.242;6.974;2023-08-31T02:09:55;9.40;99.90
52731;DHT22;38624;53.242;6.974;2023-08-31T02:12:21;9.40;99.90
52731;DHT22;38624;53.242;6.974;2023-08-31T02:14:47;9.30;99.90
52731;DHT22;38624;53.242;6.974;2023-08-31T02:17:13;9.30;99.90
52731;DHT22;38624;53.242;6.974;2023-08-31T02:19:38;9.30;99.90
52731;DHT22;38624;53.242;6.974;2023-08-31T02:22:04;9.30;99.90
52731;DHT22;38624;53.242;6.974;2023-08-31T02:24:30;9.20;99.90
52731;DHT22;38624;53.242;6.974;2023-08-31T02:26:56;9.20;99.90
52731;DHT22;38624;53.242;6.974;2023-08-31T02:29:22;9.20;99.90
52731;DHT22;38624;53.242;6.974;2023-08-31T02:31:48;9.20;99.90
52731;DHT22;38624;53.242;6.974;2023-08-31T02:34:14;9.20;99.90
52731;DHT22;38624;53.242;6.974;2023-08-31T02:36:39;9.20;99.90
52731;DHT22;38624;53.242;6.974;2023-08-31T02:39:05;9.30;99.90
52731;DHT22;38624;53.242;6.974;2023-08-31T02:41:31;9.10;99.90
52731;DHT22;38624;53.242;6.974;2023-08-31T02:43:57;9.10;99.90
52731;DHT22;38624;53.242;6.974;2023-08-31T02:46:23;9.10;99.90
52731;DHT22;38624;53.242;6.974;2023-08-31T02:48:50;9.10;99.90
52731;DHT22;38624;53.242;6.974;2023-08-31T02:51:15;9.10;99.90
52731;DHT22;38624;53.242;6.974;2023-08-31T02:53:41;9.20;99.90
52731;DHT22;38624;53.242;6.974;2023-08-31T02:56:07;9.20;99.90
52731;DHT22;38624;53.242;6.974;2023-08-31T02:58:33;9.10;99.90
52731;DHT22;38624;53.242;6.974;2023-08-31T03:01:12;9.10;99.90
52731;DHT22;38624;53.242;6.974;2023-08-31T03:03:38;9.20;99.90
52731;DHT22;38624;53.242;6.974;2023-08-31T03:06:09;9.10;99.90
52731;DHT22;38624;53.242;6.974;2023-08-31T03:08:38;9.20;99.90
52731;DHT22;38624;53.242;6.974;2023-08-31T03:11:04;9.10;99.90
52731;DHT22;38624;53.242;6.974;2023-08-31T03:13:33;9.20;99.90
52731;DHT22;38624;53.242;6.974;2023-08-31T03:16:00;9.20;99.90
52731;DHT22;38624;53.242;6.974;2023-08-31T03:18:26;9.20;99.90
52731;DHT22;38624;53.242;6.974;2023-08-31T03:20:52;9.20;99.90
52731;DHT22;38624;53.242;6.974;2023-08-31T03:23:17;9.30;99.90
52731;DHT22;38624;53.242;6.974;2023-08-31T03:25:43;9.30;99.90
52731;DHT22;38624;53.242;6.974;2023-08-31T03:28:09;9.30;99.90
52731;DHT22;38624;53.242;6.974;2023-08-31T03:30:35;9.30;99.90
52731;DHT22;38624;53.242;6.974;2023-08-31T03:33:01;9.30;99.90
52731;DHT22;38624;53.242;6.974;2023-08-31T03:35:27;9.30;99.90
52731;DHT22;38624;53.242;6.974;2023-08-31T03:37:54;9.30;99.90
52731;DHT22;38624;53.242;6.974;2023-08-31T03:40:20;9.30;99.90
52731;DHT22;38624;53.242;6.974;2023-08-31T03:42:47;9.20;99.90
52731;DHT22;38624;53.242;6.974;2023-08-31T03:45:12;9.20;99.90
52731;DHT22;38624;53.242;6.974;2023-08-31T03:47:38;9.20;99.90
52731;DHT22;38624;53.242;6.974;2023-08-31T03:50:05;9.20;99.90
52731;DHT22;38624;53.242;6.974;2023-08-31T03:52:31;9.10;99.90
52731;DHT22;38624;53.242;6.974;2023-08-31T03:54:56;9.30;99.90
52731;DHT22;38624;53.242;6.974;2023-08-31T03:57:22;9.10;99.90
52731;DHT22;38624;53.242;6.974;2023-08-31T03:59:48;9.00;99.90
52731;DHT22;38624;53.242;6.974;2023-08-31T04:02:13;9.00;99.90
52731;DHT22;38624;53.242;6.974;2023-08-31T04:04:39;9.10;99.90
52731;DHT22;38624;53.242;6.974;2023-08-31T04:07:05;9.10;99.90
52731;DHT22;38624;53.242;6.974;2023-08-31T04:09:32;9.10;99.90
52731;DHT22;38624;53.242;6.974;2023-08-31T04:11:58;9.10;99.90
52731;DHT22;38624;53.242;6.974;2023-08-31T04:14:26;9.10;99.90
52731;DHT22;38624;53.242;6.974;2023-08-31T04:16:51;9.20;99.90
52731;DHT22;38624;53.242;6.974;2023-08-31T04:19:17;9.20;99.90
52731;DHT22;38624;53.242;6.974;2023-08-31T04:21:43;9.30;99.90
52731;DHT22;38624;53.242;6.974;2023-08-31T04:24:09;9.30;99.90
52731;DHT22;38624;53.242;6.974;2023-08-31T04:26:35;9.40;99.90
52731;DHT22;38624;53.242;6.974;2023-08-31T04:29:03;9.40;99.90
52731;DHT22;38624;53.242;6.974;2023-08-31T04:31:31;9.50;99.90
52731;DHT22;38624;53.242;6.974;2023-08-31T04:33:57;9.50;99.90
52731;DHT22;38624;53.242;6.974;2023-08-31T04:36:22;9.50;99.90
52731;DHT22;38624;53.242;6.974;2023-08-31T04:38:49;9.50;99.90
52731;DHT22;38624;53.242;6.974;2023-08-31T04:41:14;9.50;99.90
52731;DHT22;38624;53.242;6.974;2023-08-31T04:43:41;9.50;99.90
52731;DHT22;38624;53.242;6.974;2023-08-31T04:46:06;9.60;99.90
52731;DHT22;38624;53.242;6.974;2023-08-31T04:48:32;9.50;99.90
52731;DHT22;38624;53.242;6.974;2023-08-31T04:50:58;9.40;99.90
52731;DHT22;38624;53.242;6.974;2023-08-31T04:53:24;9.50;99.90
52731;DHT22;38624;53.242;6.974;2023-08-31T04:55:51;9.50;99.90
52731;DHT22;38624;53.242;6.974;2023-08-31T04:58:17;9.50;99.90
52731;DHT22;38624;53.242;6.974;2023-08-31T05:00:42;9.50;99.90
52731;DHT22;38624;53.242;6.974;2023-08-31T05:03:10;9.50;99.90
52731;DHT22;38624;53.242;6.974;2023-08-31T05:05:35;9.50;99.90
52731;DHT22;38624;53.242;6.974;2023-08-31T05:08:02;9.60;99.90
52731;DHT22;38624;53.242;6.974;2023-08-31T05:10:28;9.60;99.90
52731;DHT22;38624;53.242;6.974;2023-08-31T05:12:54;9.70;99.90
52731;DHT22;38624;53.242;6.974;2023-08-31T05:15:20;9.70;99.90
52731;DHT22;38624;53.242;6.974;2023-08-31T05:17:45;9.80;99.90
52731;DHT22;38624;53.242;6.974;2023-08-31T05:20:11;9.80;99.90
52731;DHT22;38624;53.242;6.974;2023-08-31T05:22:38;9.90;99.90
52731;DHT22;38624;53.242;6.974;2023-08-31T05:25:04;9.80;99.90
52731;DHT22;38624;53.242;6.974;2023-08-31T05:27:30;9.80;99.90
52731;DHT22;38624;53.242;6.974;2023-08-31T05:29:55;9.70;99.90
52731;DHT22;38624;53.242;6.974;2023-08-31T05:32:21;9.80;99.90
52731;DHT22;38624;53.242;6.974;2023-08-31T05:34:46;9.70;99.90
52731;DHT22;38624;53.242;6.974;2023-08-31T05:37:12;9.80;99.90
52731;DHT22;38624;53.242;6.974;2023-08-31T05:39:39;9.80;99.90
52731;DHT22;38624;53.242;6.974;2023-08-31T05:42:05;9.80;99.90
52731;DHT22;38624;53.242;6.974;2023-08-31T05:44:31;9.80;99.90
52731;DHT22;38624;53.242;6.974;2023-08-31T05:46:56;9.80;99.90
52731;DHT22;38624;53.242;6.974;2023-08-31T05:49:22;9.90;99.90
52731;DHT22;38624;53.242;6.974;2023-08-31T05:51:49;9.90;99.90
52731;DHT22;38624;53.242;6.974;2023-08-31T05:54:16;9.90;99.90
52731;DHT22;38624;53.242;6.974;2023-08-31T05:56:42;9.90;99.90
52731;DHT22;38624;53.242;6.974;2023-08-31T05:59:08;10.00;99.90
52731;DHT22;38624;53.242;6.974;2023-08-31T06:01:35;10.00;99.90
52731;DHT22;38624;53.242;6.974;2023-08-31T06:04:02;10.00;99.90
52731;DHT22;38624;53.242;6.974;2023-08-31T06:06:28;10.10;99.90
52731;DHT22;38624;53.242;6.974;2023-08-31T06:08:54;10.20;99.90
52731;DHT22;38624;53.242;6.974;2023-08-31T06:11:20;10.10;99.90
52731;DHT22;38624;53.242;6.974;2023-08-31T06:13:46;10.30;99.90
52731;DHT22;38624;53.242;6.974;2023-08-31T06:16:12;10.30;99.90
52731;DHT22;38624;53.242;6.974;2023-08-31T06:18:38;10.30;99.90
52731;DHT22;38624;53.242;6.974;2023-08-31T06:21:03;10.40;99.90
52731;DHT22;38624;53.242;6.974;2023-08-31T06:23:30;10.40;99.90
52731;DHT22;38624;53.242;6.974;2023-08-31T06:25:55;10.50;99.90
52731;DHT22;38624;53.242;6.974;2023-08-31T06:28:21;10.60;99.90
52731;DHT22;38624;53.242;6.974;2023-08-31T06:30:47;10.70;99.90
52731;DHT22;38624;53.242;6.974;2023-08-31T06:33:16;10.80;99.90
52731;DHT22;38624;53.242;6.974;2023-08-31T06:35:45;10.90;99.90
52731;DHT22;38624;53.242;6.974;2023-08-31T06:38:10;11.00;99.90
52731;DHT22;38624;53.242;6.974;2023-08-31T06:40:36;11.10;99.90
52731;DHT22;38624;53.242;6.974;2023-08-31T06:43:02;11.20;99.90
52731;DHT22;38624;53.242;6.974;2023-08-31T06:45:29;11.20;99.90
52731;DHT22;38624;53.242;6.974;2023-08-31T06:47:54;11.30;99.90
52731;DHT22;38624;53.242;6.974;2023-08-31T06:50:20;11.40;99.90
52731;DHT22;38624;53.242;6.974;2023-08-31T06:52:46;11.50;99.90
52731;DHT22;38624;53.242;6.974;2023-08-31T06:55:12;11.60;99.90
52731;DHT22;38624;53.242;6.974;2023-08-31T06:57:38;11.70;99.90
52731;DHT22;38624;53.242;6.974;2023-08-31T07:00:04;11.80;99.90
52731;DHT22;38624;53.242;6.974;2023-08-31T07:02:31;11.90;99.90
52731;DHT22;38624;53.242;6.974;2023-08-31T07:04:57;12.00;99.90
52731;DHT22;38624;53.242;6.974;2023-08-31T07:07:22;12.10;99.90
52731;DHT22;38624;53.242;6.974;2023-08-31T07:09:48;12.30;99.90
52731;DHT22;38624;53.242;6.974;2023-08-31T07:12:14;12.40;99.90
52731;DHT22;38624;53.242;6.974;2023-08-31T07:14:40;12.60;99.90
52731;DHT22;38624;53.242;6.974;2023-08-31T07:17:06;12.70;99.90
52731;DHT22;38624;53.242;6.974;2023-08-31T07:19:31;12.80;99.90
52731;DHT22;38624;53.242;6.974;2023-08-31T07:22:00;12.90;99.90
52731;DHT22;38624;53.242;6.974;2023-08-31T07:24:26;13.00;99.90
52731;DHT22;38624;53.242;6.974;2023-08-31T07:26:52;13.10;99.90
52731;DHT22;38624;53.242;6.974;2023-08-31T07:29:18;13.20;99.90
52731;DHT22;38624;53.242;6.974;2023-08-31T07:31:44;13.30;99.90
52731;DHT22;38624;53.242;6.974;2023-08-31T07:34:09;13.40;99.90
52731;DHT22;38624;53.242;6.974;2023-08-31T07:36:35;13.50;99.90
52731;DHT22;38624;53.242;6.974;2023-08-31T07:39:00;13.70;99.90
52731;DHT22;38624;53.242;6.974;2023-08-31T07:41:26;13.70;99.90
52731;DHT22;38624;53.242;6.974;2023-08-31T07:43:52;13.80;99.90
52731;DHT22;38624;53.242;6.974;2023-08-31T07:46:18;14.00;99.90
52731;DHT22;38624;53.242;6.974;2023-08-31T07:48:43;14.10;99.90
52731;DHT22;38624;53.242;6.974;2023-08-31T07:51:09;14.10;99.90
52731;DHT22;38624;53.242;6.974;2023-08-31T07:53:35;14.30;99.90
52731;DHT22;38624;53.242;6.974;2023-08-31T07:56:01;14.40;99.90
52731;DHT22;38624;53.242;6.974;2023-08-31T07:58:26;14.50;99.90
52731;DHT22;38624;53.242;6.974;2023-08-31T08:00:53;14.60;99.90
52731;DHT22;38624;53.242;6.974;2023-08-31T08:03:20;14.70;99.90
52731;DHT22;38624;53.242;6.974;2023-08-31T08:05:45;14.70;99.90
52731;DHT22;38624;53.242;6.974;2023-08-31T08:08:11;14.90;99.90
52731;DHT22;38624;53.242;6.974;2023-08-31T08:10:37;14.90;99.90
52731;DHT22;38624;53.242;6.974;2023-08-31T08:13:03;15.00;99.90
52731;DHT22;38624;53.242;6.974;2023-08-31T08:15:29;15.10;99.90
52731;DHT22;38624;53.242;6.974;2023-08-31T08:17:55;15.10;99.90
52731;DHT22;38624;53.242;6.974;2023-08-31T08:20:22;15.20;99.90
52731;DHT22;38624;53.242;6.974;2023-08-31T08:22:48;15.20;99.90
52731;DHT22;38624;53.242;6.974;2023-08-31T08:25:18;15.30;99.90
52731;DHT22;38624;53.242;6.974;2023-08-31T08:27:44;15.20;99.90
52731;DHT22;38624;53.242;6.974;2023-08-31T08:30:10;15.10;99.90
52731;DHT22;38624;53.242;6.974;2023-08-31T08:32:35;15.30;99.90
52731;DHT22;38624;53.242;6.974;2023-08-31T08:35:01;15.50;99.90
52731;DHT22;38624;53.242;6.974;2023-08-31T08:37:28;15.70;99.90
52731;DHT22;38624;53.242;6.974;2023-08-31T08:39:55;16.00;99.90
52731;DHT22;38624;53.242;6.974;2023-08-31T08:42:24;16.30;99.90
52731;DHT22;38624;53.242;6.974;2023-08-31T08:44:51;16.30;99.90
52731;DHT22;38624;53.242;6.974;2023-08-31T08:47:17;16.40;99.90
52731;DHT22;38624;53.242;6.974;2023-08-31T08:49:43;16.40;99.90
52731;DHT22;38624;53.242;6.974;2023-08-31T08:52:10;16.40;99.90
52731;DHT22;38624;53.242;6.974;2023-08-31T08:54:37;16.40;99.90
52731;DHT22;38624;53.242;6.974;2023-08-31T08:57:04;16.30;99.90
52731;DHT22;38624;53.242;6.974;2023-08-31T08:59:33;16.30;99.90
52731;DHT22;38624;53.242;6.974;2023-08-31T09:01:59;16.30;99.90
52731;DHT22;38624;53.242;6.974;2023-08-31T09:04:25;16.40;99.90
52731;DHT22;38624;53.242;6.974;2023-08-31T09:06:51;16.80;99.90
52731;DHT22;38624;53.242;6.974;2023-08-31T09:09:17;17.20;99.90
52731;DHT22;38624;53.242;6.974;2023-08-31T09:11:43;17.10;99.90
52731;DHT22;38624;53.242;6.974;2023-08-31T09:14:17;17.40;99.90
52731;DHT22;38624;53.242;6.974;2023-08-31T09:16:51;17.50;99.90
52731;DHT22;38624;53.242;6.974;2023-08-31T09:19:24;17.30;99.90
52731;DHT22;38624;53.242;6.974;2023-08-31T09:21:51;17.00;99.90
52731;DHT22;38624;53.242;6.974;2023-08-31T09:24:17;16.80;99.90
52731;DHT22;38624;53.242;6.974;2023-08-31T09:26:57;16.80;99.90
52731;DHT22;38624;53.242;6.974;2023-08-31T09:29:23;17.10;99.90
52731;DHT22;38624;53.242;6.974;2023-08-31T09:31:49;17.10;99.90
52731;DHT22;38624;53.242;6.974;2023-08-31T09:34:17;17.60;99.90
52731;DHT22;38624;53.242;6.974;2023-08-31T09:36:43;17.90;99.90
52731;DHT22;38624;53.242;6.974;2023-08-31T09:39:09;18.00;99.90
52731;DHT22;38624;53.242;6.974;2023-08-31T09:41:52;18.20;99.90
52731;DHT22;38624;53.242;6.974;2023-08-31T09:44:19;18.10;99.90
52731;DHT22;38624;53.242;6.974;2023-08-31T09:46:45;18.00;99.90
52731;DHT22;38624;53.242;6.974;2023-08-31T09:49:14;17.90;99.90
52731;DHT22;38624;53.242;6.974;2023-08-31T09:51:48;17.80;99.90
52731;DHT22;38624;53.242;6.974;2023-08-31T09:54:18;17.60;99.90
52731;DHT22;38624;53.242;6.974;2023-08-31T09:56:46;16.90;99.90
52731;DHT22;38624;53.242;6.974;2023-08-31T09:59:13;16.80;99.90
52731;DHT22;38624;53.242;6.974;2023-08-31T10:01:45;16.60;99.90
52731;DHT22;38624;53.242;6.974;2023-08-31T10:04:11;16.30;99.90
52731;DHT22;38624;53.242;6.974;2023-08-31T10:06:41;16.10;99.90
52731;DHT22;38624;53.242;6.974;2023-08-31T10:09:08;16.00;99.90
52731;DHT22;38624;53.242;6.974;2023-08-31T10:11:41;15.90;99.90
52731;DHT22;38624;53.242;6.974;2023-08-31T10:14:09;15.90;99.90
52731;DHT22;38624;53.242;6.974;2023-08-31T10:16:38;16.20;99.90
52731;DHT22;38624;53.242;6.974;2023-08-31T10:19:04;16.80;99.90
52731;DHT22;38624;53.242;6.974;2023-08-31T10:21:30;17.40;99.90
52731;DHT22;38624;53.242;6.974;2023-08-31T10:23:56;17.80;99.90
52731;DHT22;38624;53.242;6.974;2023-08-31T10:26:29;17.80;99.90
52731;DHT22;38624;53.242;6.974;2023-08-31T10:28:56;17.60;99.90
52731;DHT22;38624;53.242;6.974;2023-08-31T10:31:23;17.50;99.90
52731;DHT22;38624;53.242;6.974;2023-08-31T10:34:07;17.20;99.90
52731;DHT22;38624;53.242;6.974;2023-08-31T10:36:44;16.90;99.90
52731;DHT22;38624;53.242;6.974;2023-08-31T10:39:15;16.90;99.90
52731;DHT22;38624;53.242;6.974;2023-08-31T10:41:42;17.00;99.90
52731;DHT22;38624;53.242;6.974;2023-08-31T10:44:23;17.00;99.90
52731;DHT22;38624;53.242;6.974;2023-08-31T10:46:50;17.10;99.90
52731;DHT22;38624;53.242;6.974;2023-08-31T10:49:18;17.20;99.90
52731;DHT22;38624;53.242;6.974;2023-08-31T10:51:47;17.50;99.90
52731;DHT22;38624;53.242;6.974;2023-08-31T10:59:51;18.10;99.90
52731;DHT22;38624;53.242;6.974;2023-08-31T11:02:27;18.20;99.90
52731;DHT22;38624;53.242;6.974;2023-08-31T11:05:02;18.40;99.90
52731;DHT22;38624;53.242;6.974;2023-08-31T11:07:31;18.60;99.90
52731;DHT22;38624;53.242;6.974;2023-08-31T11:10:14;18.30;99.90
52731;DHT22;38624;53.242;6.974;2023-08-31T11:12:41;18.10;99.90
52731;DHT22;38624;53.242;6.974;2023-08-31T11:15:08;17.50;99.90
52731;DHT22;38624;53.242;6.974;2023-08-31T11:17:37;15.90;99.90
52731;DHT22;38624;53.242;6.974;2023-08-31T11:20:06;14.50;99.90
52731;DHT22;38624;53.242;6.974;2023-08-31T11:22:38;13.90;99.90
52731;DHT22;38624;53.242;6.974;2023-08-31T11:25:07;13.60;99.90
52731;DHT22;38624;53.242;6.974;2023-08-31T11:27:36;13.40;99.90
52731;DHT22;38624;53.242;6.974;2023-08-31T11:30:04;13.30;99.90
52731;DHT22;38624;53.242;6.974;2023-08-31T11:32:36;13.30;99.90
52731;DHT22;38624;53.242;6.974;2023-08-31T11:35:02;13.30;99.90
52731;DHT22;38624;53.242;6.974;2023-08-31T11:37:29;13.20;99.90
52731;DHT22;38624;53.242;6.974;2023-08-31T11:39:54;13.40;99.90
52731;DHT22;38624;53.242;6.974;2023-08-31T11:42:21;14.00;99.90
52731;DHT22;38624;53.242;6.974;2023-08-31T11:44:48;14.20;99.90
52731;DHT22;38624;53.242;6.974;2023-08-31T11:47:15;14.30;99.90
52731;DHT22;38624;53.242;6.974;2023-08-31T11:49:41;14.60;99.90
52731;DHT22;38624;53.242;6.974;2023-08-31T11:52:10;14.70;99.90
52731;DHT22;38624;53.242;6.974;2023-08-31T11:54:37;14.90;99.90
52731;DHT22;38624;53.242;6.974;2023-08-31T11:57:07;14.80;99.90
52731;DHT22;38624;53.242;6.974;2023-08-31T11:59:35;14.50;99.90
52731;DHT22;38624;53.242;6.974;2023-08-31T12:02:01;14.40;99.90
52731;DHT22;38624;53.242;6.974;2023-08-31T12:04:27;14.30;99.90
52731;DHT22;38624;53.242;6.974;2023-08-31T12:06:53;14.00;99.90
52731;DHT22;38624;53.242;6.974;2023-08-31T12:09:28;13.50;99.90
52731;DHT22;38624;53.242;6.974;2023-08-31T12:11:53;13.30;99.90
52731;DHT22;38624;53.242;6.974;2023-08-31T12:14:21;13.10;99.90
52731;DHT22;38624;53.242;6.974;2023-08-31T12:16:47;13.00;99.90
52731;DHT22;38624;53.242;6.974;2023-08-31T12:19:13;13.10;99.90
52731;DHT22;38624;53.242;6.974;2023-08-31T12:21:39;13.00;99.90
52731;DHT22;38624;53.242;6.974;2023-08-31T12:24:05;12.80;99.90
52731;DHT22;38624;53.242;6.974;2023-08-31T12:26:31;12.90;99.90
52731;DHT22;38624;53.242;6.974;2023-08-31T12:28:57;12.80;99.90
52731;DHT22;38624;53.242;6.974;2023-08-31T12:31:23;12.70;99.90
52731;DHT22;38624;53.242;6.974;2023-08-31T12:33:49;12.80;99.90
52731;DHT22;38624;53.242;6.974;2023-08-31T12:36:15;12.80;99.90
52731;DHT22;38624;53.242;6.974;2023-08-31T12:38:41;13.00;99.90
52731;DHT22;38624;53.242;6.974;2023-08-31T12:41:07;12.80;99.90
52731;DHT22;38624;53.242;6.974;2023-08-31T12:43:34;12.90;99.90
52731;DHT22;38624;53.242;6.974;2023-08-31T12:45:59;13.00;99.90
52731;DHT22;38624;53.242;6.974;2023-08-31T12:48:26;13.10;99.90
52731;DHT22;38624;53.242;6.974;2023-08-31T12:50:51;13.50;99.90
52731;DHT22;38624;53.242;6.974;2023-08-31T12:53:21;13.40;99.90
52731;DHT22;38624;53.242;6.974;2023-08-31T12:55:47;13.40;99.90
52731;DHT22;38624;53.242;6.974;2023-08-31T12:58:13;13.20;99.90
52731;DHT22;38624;53.242;6.974;2023-08-31T13:00:38;13.30;99.90
52731;DHT22;38624;53.242;6.974;2023-08-31T13:03:05;13.20;99.90
52731;DHT22;38624;53.242;6.974;2023-08-31T13:05:32;13.60;99.90
52731;DHT22;38624;53.242;6.974;2023-08-31T13:07:58;13.80;99.90
52731;DHT22;38624;53.242;6.974;2023-08-31T13:10:24;14.30;99.90
52731;DHT22;38624;53.242;6.974;2023-08-31T13:12:49;14.50;99.90
52731;DHT22;38624;53.242;6.974;2023-08-31T13:15:15;14.90;99.90
52731;DHT22;38624;53.242;6.974;2023-08-31T13:17:41;15.20;99.90
52731;DHT22;38624;53.242;6.974;2023-08-31T13:20:07;15.50;99.90
52731;DHT22;38624;53.242;6.974;2023-08-31T13:22:36;15.60;99.90
52731;DHT22;38624;53.242;6.974;2023-08-31T13:25:03;15.90;99.90
52731;DHT22;38624;53.242;6.974;2023-08-31T13:27:30;15.90;99.90
52731;DHT22;38624;53.242;6.974;2023-08-31T13:29:58;16.00;99.90
52731;DHT22;38624;53.242;6.974;2023-08-31T13:32:24;16.00;99.90
52731;DHT22;38624;53.242;6.974;2023-08-31T13:34:51;16.20;99.90
52731;DHT22;38624;53.242;6.974;2023-08-31T13:37:17;16.00;99.90
52731;DHT22;38624;53.242;6.974;2023-08-31T13:39:43;15.90;99.90
52731;DHT22;38624;53.242;6.974;2023-08-31T13:42:08;15.70;99.90
52731;DHT22;38624;53.242;6.974;2023-08-31T13:44:34;15.60;99.90
52731;DHT22;38624;53.242;6.974;2023-08-31T13:47:01;15.70;99.90
52731;DHT22;38624;53.242;6.974;2023-08-31T13:49:29;15.80;99.90
52731;DHT22;38624;53.242;6.974;2023-08-31T13:51:54;16.10;99.90
52731;DHT22;38624;53.242;6.974;2023-08-31T13:54:20;16.10;99.90
52731;DHT22;38624;53.242;6.974;2023-08-31T13:56:46;16.30;99.90
52731;DHT22;38624;53.242;6.974;2023-08-31T13:59:11;16.30;99.90
52731;DHT22;38624;53.242;6.974;2023-08-31T14:01:37;16.30;99.90
52731;DHT22;38624;53.242;6.974;2023-08-31T14:04:03;16.20;99.90
52731;DHT22;38624;53.242;6.974;2023-08-31T14:06:29;16.30;99.90
52731;DHT22;38624;53.242;6.974;2023-08-31T14:08:55;16.20;99.90
52731;DHT22;38624;53.242;6.974;2023-08-31T14:11:21;16.10;99.90
52731;DHT22;38624;53.242;6.974;2023-08-31T14:13:47;16.10;99.90
52731;DHT22;38624;53.242;6.974;2023-08-31T14:16:12;16.30;99.90
52731;DHT22;38624;53.242;6.974;2023-08-31T14:18:38;16.70;99.90
52731;DHT22;38624;53.242;6.974;2023-08-31T14:21:04;17.40;99.90
52731;DHT22;38624;53.242;6.974;2023-08-31T14:23:30;17.50;99.90
52731;DHT22;38624;53.242;6.974;2023-08-31T14:26:02;17.50;99.90
52731;DHT22;38624;53.242;6.974;2023-08-31T14:28:31;17.60;99.90
52731;DHT22;38624;53.242;6.974;2023-08-31T14:30:57;17.70;99.90
52731;DHT22;38624;53.242;6.974;2023-08-31T14:33:22;17.70;99.90
52731;DHT22;38624;53.242;6.974;2023-08-31T14:35:50;17.00;99.90
52731;DHT22;38624;53.242;6.974;2023-08-31T14:38:21;16.30;99.90
52731;DHT22;38624;53.242;6.974;2023-08-31T14:40:48;16.10;99.90
52731;DHT22;38624;53.242;6.974;2023-08-31T14:43:13;15.80;99.90
52731;DHT22;38624;53.242;6.974;2023-08-31T14:45:39;15.70;99.90
52731;DHT22;38624;53.242;6.974;2023-08-31T14:48:05;16.10;99.90
52731;DHT22;38624;53.242;6.974;2023-08-31T14:50:31;16.50;99.90
52731;DHT22;38624;53.242;6.974;2023-08-31T14:52:57;16.90;99.90
52731;DHT22;38624;53.242;6.974;2023-08-31T14:55:22;17.10;99.90
52731;DHT22;38624;53.242;6.974;2023-08-31T14:57:48;17.00;99.90
52731;DHT22;38624;53.242;6.974;2023-08-31T15:00:14;17.00;99.90
52731;DHT22;38624;53.242;6.974;2023-08-31T15:02:40;16.90;99.90
52731;DHT22;38624;53.242;6.974;2023-08-31T15:05:06;16.90;99.90
52731;DHT22;38624;53.242;6.974;2023-08-31T15:07:31;16.90;99.90
52731;DHT22;38624;53.242;6.974;2023-08-31T15:09:57;17.20;99.90
52731;DHT22;38624;53.242;6.974;2023-08-31T15:12:23;18.00;99.90
52731;DHT22;38624;53.242;6.974;2023-08-31T15:14:48;19.00;99.90
52731;DHT22;38624;53.242;6.974;2023-08-31T15:17:14;19.70;99.90
52731;DHT22;38624;53.242;6.974;2023-08-31T15:19:40;20.10;99.90
52731;DHT22;38624;53.242;6.974;2023-08-31T15:22:05;20.50;99.90
52731;DHT22;38624;53.242;6.974;2023-08-31T15:24:31;20.50;99.90
52731;DHT22;38624;53.242;6.974;2023-08-31T15:26:58;20.70;99.90
52731;DHT22;38624;53.242;6.974;2023-08-31T15:29:24;20.90;99.90
52731;DHT22;38624;53.242;6.974;2023-08-31T15:31:50;21.00;99.90
52731;DHT22;38624;53.242;6.974;2023-08-31T15:34:16;20.80;99.90
52731;DHT22;38624;53.242;6.974;2023-08-31T15:36:42;21.00;99.90
52731;DHT22;38624;53.242;6.974;2023-08-31T15:39:08;20.80;99.90
52731;DHT22;38624;53.242;6.974;2023-08-31T15:41:33;21.10;99.90
52731;DHT22;38624;53.242;6.974;2023-08-31T15:44:01;21.70;99.90